Terminal Aerodrome Forecast
Issued by NWS Mt. Holly, NJ

Home | Current Version | Previous Version | Text Only | Print | Product List | Glossary On
Versions: 1 2 3 4 5 6 7 8 9 10 11 12 13 14 15 16
676
FTUS41 KPHI 272132 AAA
TAFACY
TAF AMD
KACY 272132Z 2722/2818 18010G18KT P6SM SCT050
     FM280100 20006KT P6SM SCT250
     FM281400 20010KT P6SM SCT050=

USA.gov is the U.S. government's official web portal to all federal, state and local government web resources and services.